Weather at Luke Air Force Auxiliary Field 10 [CLOSED]

Public forecast

Using degrees Fahrenheit for public forecast. Weather courtesy of forecast.io.

Closest aviation weather report (METAR) to Luke Air Force Auxiliary Field 10

Closest report is Gila Bend Af Aux Airport, 12.1 nm (22.4 km) NNE. Retrieved 2021/06/20 03:58 UTC (13 minutes ago):

KGXF 200358Z AUTO 21010KT 10SM CLR 40/07 A2956 RMK AO2 SLP993 T04030066

Closest aviation forecast (TAF) to Luke Air Force Auxiliary Field 10

Forecast is more than 12 hours old.

Closest forecast is Luke Air Force Base, 54.4 nm (100.7 km) NNE. Retrieved 2021/06/18 20:25 UTC (1 day ago):

TAF KLUF 182000Z 1820/2002 VRB06KT 9999 FEW200 QNH2961INS BECMG 1820/1821 22012G18KT 9999 FEW180 QNH2956INS BECMG 1901/1902 VRB06KT 9999 FEW200 QNH2963INS TEMPO 1922/2002 24010G15KT TX47/1823Z TN30/1913Z LAST NO AMDS AFT 1902 NEXT 2112